sensor_id;sensor_type;location;lat;lon;timestamp;P1;durP1;ratioP1;P2;durP2;ratioP2
77298;SDS011;66361;52.034;20.656;2024-03-08T00:05:16;29.45;;;16.77;;
77298;SDS011;66361;52.034;20.656;2024-03-08T00:09:00;38.05;;;15.35;;
77298;SDS011;66361;52.034;20.656;2024-03-08T00:12:44;36.67;;;17.77;;
77298;SDS011;66361;52.034;20.656;2024-03-08T00:16:30;33.92;;;17.83;;
77298;SDS011;66361;52.034;20.656;2024-03-08T00:20:14;38.53;;;17.33;;
77298;SDS011;66361;52.034;20.656;2024-03-08T00:24:00;41.30;;;16.60;;
77298;SDS011;66361;52.034;20.656;2024-03-08T00:27:44;35.75;;;16.15;;
77298;SDS011;66361;52.034;20.656;2024-03-08T00:31:33;35.55;;;17.55;;
77298;SDS011;66361;52.034;20.656;2024-03-08T00:35:17;33.33;;;17.05;;
77298;SDS011;66361;52.034;20.656;2024-03-08T00:39:01;30.45;;;17.05;;
77298;SDS011;66361;52.034;20.656;2024-03-08T00:42:48;35.38;;;17.65;;
77298;SDS011;66361;52.034;20.656;2024-03-08T00:46:32;34.83;;;17.48;;
77298;SDS011;66361;52.034;20.656;2024-03-08T00:50:17;40.88;;;20.55;;
77298;SDS011;66361;52.034;20.656;2024-03-08T00:54:01;29.38;;;16.25;;
77298;SDS011;66361;52.034;20.656;2024-03-08T00:57:45;34.67;;;17.38;;
77298;SDS011;66361;52.034;20.656;2024-03-08T01:01:29;44.00;;;18.20;;
77298;SDS011;66361;52.034;20.656;2024-03-08T01:05:15;39.95;;;19.77;;
77298;SDS011;66361;52.034;20.656;2024-03-08T01:08:59;36.65;;;17.85;;
77298;SDS011;66361;52.034;20.656;2024-03-08T01:12:44;36.40;;;17.05;;
77298;SDS011;66361;52.034;20.656;2024-03-08T01:16:28;38.20;;;19.08;;
77298;SDS011;66361;52.034;20.656;2024-03-08T01:20:12;36.92;;;20.40;;
77298;SDS011;66361;52.034;20.656;2024-03-08T01:23:57;36.33;;;19.05;;
77298;SDS011;66361;52.034;20.656;2024-03-08T01:27:41;33.42;;;19.00;;
77298;SDS011;66361;52.034;20.656;2024-03-08T01:31:26;46.60;;;22.25;;
77298;SDS011;66361;52.034;20.656;2024-03-08T01:35:11;38.70;;;21.83;;
77298;SDS011;66361;52.034;20.656;2024-03-08T01:38:56;47.80;;;19.92;;
77298;SDS011;66361;52.034;20.656;2024-03-08T01:46:24;42.78;;;20.58;;
77298;SDS011;66361;52.034;20.656;2024-03-08T01:50:10;47.58;;;22.33;;
77298;SDS011;66361;52.034;20.656;2024-03-08T01:53:54;40.47;;;21.20;;
77298;SDS011;66361;52.034;20.656;2024-03-08T01:57:41;44.75;;;23.30;;
77298;SDS011;66361;52.034;20.656;2024-03-08T02:01:25;44.25;;;20.77;;
77298;SDS011;66361;52.034;20.656;2024-03-08T02:05:10;40.10;;;23.00;;
77298;SDS011;66361;52.034;20.656;2024-03-08T02:08:53;41.25;;;21.02;;
77298;SDS011;66361;52.034;20.656;2024-03-08T02:12:39;34.15;;;19.35;;
77298;SDS011;66361;52.034;20.656;2024-03-08T02:16:23;38.22;;;18.20;;
77298;SDS011;66361;52.034;20.656;2024-03-08T02:20:07;36.55;;;19.25;;
77298;SDS011;66361;52.034;20.656;2024-03-08T02:23:54;37.60;;;18.20;;
77298;SDS011;66361;52.034;20.656;2024-03-08T02:27:40;38.65;;;18.88;;
77298;SDS011;66361;52.034;20.656;2024-03-08T02:31:23;40.05;;;21.50;;
77298;SDS011;66361;52.034;20.656;2024-03-08T02:35:07;36.22;;;20.73;;
77298;SDS011;66361;52.034;20.656;2024-03-08T02:38:52;37.70;;;21.20;;
77298;SDS011;66361;52.034;20.656;2024-03-08T02:50:06;40.90;;;22.90;;
77298;SDS011;66361;52.034;20.656;2024-03-08T02:53:51;36.53;;;19.70;;
77298;SDS011;66361;52.034;20.656;2024-03-08T02:57:35;41.05;;;21.40;;
77298;SDS011;66361;52.034;20.656;2024-03-08T03:01:20;41.38;;;20.20;;
77298;SDS011;66361;52.034;20.656;2024-03-08T03:05:05;46.33;;;21.15;;
77298;SDS011;66361;52.034;20.656;2024-03-08T03:08:51;43.47;;;23.15;;
77298;SDS011;66361;52.034;20.656;2024-03-08T03:12:35;40.10;;;19.95;;
77298;SDS011;66361;52.034;20.656;2024-03-08T03:16:21;40.38;;;18.98;;
77298;SDS011;66361;52.034;20.656;2024-03-08T03:20:06;38.65;;;22.02;;
77298;SDS011;66361;52.034;20.656;2024-03-08T03:23:55;48.28;;;21.10;;
77298;SDS011;66361;52.034;20.656;2024-03-08T03:27:41;46.33;;;20.77;;
77298;SDS011;66361;52.034;20.656;2024-03-08T03:31:26;32.50;;;20.85;;
77298;SDS011;66361;52.034;20.656;2024-03-08T03:35:11;35.40;;;18.80;;
77298;SDS011;66361;52.034;20.656;2024-03-08T03:38:54;36.70;;;18.38;;
77298;SDS011;66361;52.034;20.656;2024-03-08T03:42:48;37.40;;;18.08;;
77298;SDS011;66361;52.034;20.656;2024-03-08T03:46:34;40.08;;;21.25;;
77298;SDS011;66361;52.034;20.656;2024-03-08T03:50:18;31.55;;;19.73;;
77298;SDS011;66361;52.034;20.656;2024-03-08T03:54:03;39.10;;;19.30;;
77298;SDS011;66361;52.034;20.656;2024-03-08T03:57:47;42.53;;;19.48;;
77298;SDS011;66361;52.034;20.656;2024-03-08T04:01:31;42.58;;;17.80;;
77298;SDS011;66361;52.034;20.656;2024-03-08T04:05:21;39.83;;;19.95;;
77298;SDS011;66361;52.034;20.656;2024-03-08T04:09:05;39.80;;;20.23;;
77298;SDS011;66361;52.034;20.656;2024-03-08T04:12:49;38.00;;;18.77;;
77298;SDS011;66361;52.034;20.656;2024-03-08T04:16:33;33.90;;;16.23;;
77298;SDS011;66361;52.034;20.656;2024-03-08T04:20:17;37.42;;;19.25;;
77298;SDS011;66361;52.034;20.656;2024-03-08T04:24:02;36.35;;;18.88;;
77298;SDS011;66361;52.034;20.656;2024-03-08T04:27:46;42.13;;;18.83;;
77298;SDS011;66361;52.034;20.656;2024-03-08T04:31:31;40.22;;;17.80;;
77298;SDS011;66361;52.034;20.656;2024-03-08T04:35:15;39.60;;;19.77;;
77298;SDS011;66361;52.034;20.656;2024-03-08T04:38:59;37.00;;;17.90;;
77298;SDS011;66361;52.034;20.656;2024-03-08T04:42:44;44.60;;;19.88;;
77298;SDS011;66361;52.034;20.656;2024-03-08T04:46:29;44.72;;;21.80;;
77298;SDS011;66361;52.034;20.656;2024-03-08T04:50:13;38.05;;;20.48;;
77298;SDS011;66361;52.034;20.656;2024-03-08T04:53:57;37.35;;;18.90;;
77298;SDS011;66361;52.034;20.656;2024-03-08T04:57:41;30.90;;;19.70;;
77298;SDS011;66361;52.034;20.656;2024-03-08T05:01:30;34.45;;;20.60;;
77298;SDS011;66361;52.034;20.656;2024-03-08T05:05:13;24.90;;;17.42;;
77298;SDS011;66361;52.034;20.656;2024-03-08T05:08:57;38.90;;;17.67;;
77298;SDS011;66361;52.034;20.656;2024-03-08T05:12:41;50.70;;;20.27;;
77298;SDS011;66361;52.034;20.656;2024-03-08T05:16:25;33.05;;;17.83;;
77298;SDS011;66361;52.034;20.656;2024-03-08T05:20:11;31.05;;;16.50;;
77298;SDS011;66361;52.034;20.656;2024-03-08T05:23:55;33.72;;;17.48;;
77298;SDS011;66361;52.034;20.656;2024-03-08T05:27:39;31.80;;;17.67;;
77298;SDS011;66361;52.034;20.656;2024-03-08T05:31:23;31.33;;;16.58;;
77298;SDS011;66361;52.034;20.656;2024-03-08T05:35:07;38.45;;;18.55;;
77298;SDS011;66361;52.034;20.656;2024-03-08T05:38:53;39.28;;;17.02;;
77298;SDS011;66361;52.034;20.656;2024-03-08T05:42:37;32.35;;;17.90;;
77298;SDS011;66361;52.034;20.656;2024-03-08T05:46:21;40.83;;;23.33;;
77298;SDS011;66361;52.034;20.656;2024-03-08T05:50:05;37.60;;;20.23;;
77298;SDS011;66361;52.034;20.656;2024-03-08T05:53:54;33.40;;;18.02;;
77298;SDS011;66361;52.034;20.656;2024-03-08T05:57:39;32.30;;;19.33;;
77298;SDS011;66361;52.034;20.656;2024-03-08T06:01:22;36.25;;;19.65;;
77298;SDS011;66361;52.034;20.656;2024-03-08T06:05:08;37.65;;;18.40;;
77298;SDS011;66361;52.034;20.656;2024-03-08T06:12:38;34.15;;;18.45;;
77298;SDS011;66361;52.034;20.656;2024-03-08T06:16:24;32.42;;;18.85;;
77298;SDS011;66361;52.034;20.656;2024-03-08T06:20:10;37.30;;;17.48;;
77298;SDS011;66361;52.034;20.656;2024-03-08T06:23:57;38.40;;;18.98;;
77298;SDS011;66361;52.034;20.656;2024-03-08T06:31:25;39.55;;;19.85;;
77298;SDS011;66361;52.034;20.656;2024-03-08T06:35:09;33.95;;;16.65;;
77298;SDS011;66361;52.034;20.656;2024-03-08T06:38:53;34.83;;;19.83;;
77298;SDS011;66361;52.034;20.656;2024-03-08T06:42:40;34.92;;;20.90;;
77298;SDS011;66361;52.034;20.656;2024-03-08T06:46:25;32.03;;;19.25;;
77298;SDS011;66361;52.034;20.656;2024-03-08T06:50:09;35.47;;;19.70;;
77298;SDS011;66361;52.034;20.656;2024-03-08T06:53:53;37.50;;;20.15;;
77298;SDS011;66361;52.034;20.656;2024-03-08T06:57:37;35.83;;;22.27;;
77298;SDS011;66361;52.034;20.656;2024-03-08T07:01:23;42.10;;;22.48;;
77298;SDS011;66361;52.034;20.656;2024-03-08T07:05:07;38.20;;;22.77;;
77298;SDS011;66361;52.034;20.656;2024-03-08T07:08:53;39.45;;;22.33;;
77298;SDS011;66361;52.034;20.656;2024-03-08T07:12:37;41.55;;;22.67;;
77298;SDS011;66361;52.034;20.656;2024-03-08T07:16:21;35.72;;;22.50;;
77298;SDS011;66361;52.034;20.656;2024-03-08T07:20:07;42.22;;;23.05;;
77298;SDS011;66361;52.034;20.656;2024-03-08T07:23:54;38.22;;;23.52;;
77298;SDS011;66361;52.034;20.656;2024-03-08T07:27:55;39.25;;;24.08;;
77298;SDS011;66361;52.034;20.656;2024-03-08T07:31:40;40.80;;;25.20;;
77298;SDS011;66361;52.034;20.656;2024-03-08T07:35:34;39.17;;;25.25;;
77298;SDS011;66361;52.034;20.656;2024-03-08T07:39:19;38.90;;;24.55;;
77298;SDS011;66361;52.034;20.656;2024-03-08T07:43:05;40.50;;;24.50;;
77298;SDS011;66361;52.034;20.656;2024-03-08T07:46:49;42.95;;;24.17;;
77298;SDS011;66361;52.034;20.656;2024-03-08T07:50:40;39.33;;;25.33;;
77298;SDS011;66361;52.034;20.656;2024-03-08T07:54:24;59.85;;;28.50;;
77298;SDS011;66361;52.034;20.656;2024-03-08T07:58:10;33.67;;;22.65;;
77298;SDS011;66361;52.034;20.656;2024-03-08T08:01:55;33.20;;;21.70;;
77298;SDS011;66361;52.034;20.656;2024-03-08T08:05:41;47.88;;;27.08;;
77298;SDS011;66361;52.034;20.656;2024-03-08T08:09:25;34.03;;;20.25;;
77298;SDS011;66361;52.034;20.656;2024-03-08T08:13:16;52.40;;;27.75;;
77298;SDS011;66361;52.034;20.656;2024-03-08T08:17:01;33.20;;;20.98;;
77298;SDS011;66361;52.034;20.656;2024-03-08T08:20:48;38.22;;;22.42;;
77298;SDS011;66361;52.034;20.656;2024-03-08T08:24:32;29.08;;;19.90;;
77298;SDS011;66361;52.034;20.656;2024-03-08T08:28:16;28.15;;;18.13;;
77298;SDS011;66361;52.034;20.656;2024-03-08T08:32:00;32.15;;;20.17;;
77298;SDS011;66361;52.034;20.656;2024-03-08T08:35:45;29.48;;;19.85;;
77298;SDS011;66361;52.034;20.656;2024-03-08T08:39:31;30.30;;;19.52;;
77298;SDS011;66361;52.034;20.656;2024-03-08T08:43:15;25.70;;;15.57;;
77298;SDS011;66361;52.034;20.656;2024-03-08T08:46:59;25.10;;;16.50;;
77298;SDS011;66361;52.034;20.656;2024-03-08T08:50:53;44.00;;;22.48;;
77298;SDS011;66361;52.034;20.656;2024-03-08T08:54:38;48.28;;;31.08;;
77298;SDS011;66361;52.034;20.656;2024-03-08T08:58:22;21.58;;;13.73;;
77298;SDS011;66361;52.034;20.656;2024-03-08T09:02:06;23.13;;;14.70;;
77298;SDS011;66361;52.034;20.656;2024-03-08T09:05:54;24.83;;;14.90;;
77298;SDS011;66361;52.034;20.656;2024-03-08T09:09:42;20.63;;;13.88;;
77298;SDS011;66361;52.034;20.656;2024-03-08T09:13:26;20.15;;;13.73;;
77298;SDS011;66361;52.034;20.656;2024-03-08T09:17:16;19.25;;;11.77;;
77298;SDS011;66361;52.034;20.656;2024-03-08T09:21:02;18.58;;;11.35;;
77298;SDS011;66361;52.034;20.656;2024-03-08T09:24:48;15.40;;;10.70;;
77298;SDS011;66361;52.034;20.656;2024-03-08T09:28:33;14.40;;;8.82;;
77298;SDS011;66361;52.034;20.656;2024-03-08T09:32:17;19.02;;;12.20;;
77298;SDS011;66361;52.034;20.656;2024-03-08T09:39:46;18.65;;;11.30;;
77298;SDS011;66361;52.034;20.656;2024-03-08T09:43:31;16.75;;;10.88;;
77298;SDS011;66361;52.034;20.656;2024-03-08T09:47:16;13.38;;;9.45;;
77298;SDS011;66361;52.034;20.656;2024-03-08T09:51:02;12.40;;;8.63;;
77298;SDS011;66361;52.034;20.656;2024-03-08T09:54:46;12.27;;;8.23;;
77298;SDS011;66361;52.034;20.656;2024-03-08T09:58:33;14.10;;;9.93;;
77298;SDS011;66361;52.034;20.656;2024-03-08T10:02:36;12.00;;;8.65;;
77298;SDS011;66361;52.034;20.656;2024-03-08T10:10:06;14.85;;;9.95;;
77298;SDS011;66361;52.034;20.656;2024-03-08T10:13:55;13.63;;;9.38;;
77298;SDS011;66361;52.034;20.656;2024-03-08T10:17:39;17.38;;;10.82;;
77298;SDS011;66361;52.034;20.656;2024-03-08T10:21:23;16.23;;;10.18;;
77298;SDS011;66361;52.034;20.656;2024-03-08T10:25:07;13.90;;;9.23;;
77298;SDS011;66361;52.034;20.656;2024-03-08T10:28:53;15.65;;;9.32;;
77298;SDS011;66361;52.034;20.656;2024-03-08T10:32:38;13.50;;;8.50;;
77298;SDS011;66361;52.034;20.656;2024-03-08T10:36:23;14.48;;;10.15;;
77298;SDS011;66361;52.034;20.656;2024-03-08T10:40:07;14.55;;;10.43;;
77298;SDS011;66361;52.034;20.656;2024-03-08T10:44:03;17.13;;;10.52;;
77298;SDS011;66361;52.034;20.656;2024-03-08T10:47:59;18.85;;;10.50;;
77298;SDS011;66361;52.034;20.656;2024-03-08T10:51:51;17.80;;;10.60;;
77298;SDS011;66361;52.034;20.656;2024-03-08T10:55:37;15.88;;;10.52;;
77298;SDS011;66361;52.034;20.656;2024-03-08T10:59:24;15.73;;;10.70;;
77298;SDS011;66361;52.034;20.656;2024-03-08T11:07:33;16.02;;;10.30;;
77298;SDS011;66361;52.034;20.656;2024-03-08T11:11:24;17.42;;;10.25;;
77298;SDS011;66361;52.034;20.656;2024-03-08T11:15:15;15.18;;;8.27;;
77298;SDS011;66361;52.034;20.656;2024-03-08T11:19:05;16.08;;;8.48;;
77298;SDS011;66361;52.034;20.656;2024-03-08T11:23:06;16.70;;;9.15;;
77298;SDS011;66361;52.034;20.656;2024-03-08T11:26:54;18.73;;;10.23;;
77298;SDS011;66361;52.034;20.656;2024-03-08T11:30:46;16.17;;;8.65;;
77298;SDS011;66361;52.034;20.656;2024-03-08T11:34:33;14.98;;;8.98;;
77298;SDS011;66361;52.034;20.656;2024-03-08T11:38:16;21.15;;;11.35;;
77298;SDS011;66361;52.034;20.656;2024-03-08T11:42:01;16.20;;;8.77;;
77298;SDS011;66361;52.034;20.656;2024-03-08T11:49:32;13.45;;;8.73;;
77298;SDS011;66361;52.034;20.656;2024-03-08T11:53:17;14.63;;;8.55;;
77298;SDS011;66361;52.034;20.656;2024-03-08T11:57:01;13.73;;;7.75;;
77298;SDS011;66361;52.034;20.656;2024-03-08T12:00:45;18.08;;;9.75;;
77298;SDS011;66361;52.034;20.656;2024-03-08T12:04:29;15.45;;;8.52;;
77298;SDS011;66361;52.034;20.656;2024-03-08T12:08:15;14.60;;;8.20;;
77298;SDS011;66361;52.034;20.656;2024-03-08T12:12:02;14.55;;;7.68;;
77298;SDS011;66361;52.034;20.656;2024-03-08T12:15:48;16.40;;;8.50;;
77298;SDS011;66361;52.034;20.656;2024-03-08T12:19:32;12.13;;;7.80;;
77298;SDS011;66361;52.034;20.656;2024-03-08T12:23:18;13.63;;;8.05;;
77298;SDS011;66361;52.034;20.656;2024-03-08T12:27:17;14.80;;;7.35;;
77298;SDS011;66361;52.034;20.656;2024-03-08T12:31:02;7.53;;;4.97;;
77298;SDS011;66361;52.034;20.656;2024-03-08T12:34:51;12.13;;;6.95;;
77298;SDS011;66361;52.034;20.656;2024-03-08T12:38:41;15.25;;;7.88;;
77298;SDS011;66361;52.034;20.656;2024-03-08T12:42:30;13.43;;;7.13;;
77298;SDS011;66361;52.034;20.656;2024-03-08T12:49:58;14.07;;;7.72;;
77298;SDS011;66361;52.034;20.656;2024-03-08T12:57:41;11.15;;;7.32;;
77298;SDS011;66361;52.034;20.656;2024-03-08T13:01:29;12.93;;;7.68;;
77298;SDS011;66361;52.034;20.656;2024-03-08T13:05:18;15.95;;;8.10;;
77298;SDS011;66361;52.034;20.656;2024-03-08T13:09:07;14.10;;;8.15;;
77298;SDS011;66361;52.034;20.656;2024-03-08T13:12:54;13.10;;;7.47;;
77298;SDS011;66361;52.034;20.656;2024-03-08T13:16:41;13.90;;;8.43;;
77298;SDS011;66361;52.034;20.656;2024-03-08T13:20:31;12.23;;;7.13;;
77298;SDS011;66361;52.034;20.656;2024-03-08T13:24:29;14.10;;;7.65;;
77298;SDS011;66361;52.034;20.656;2024-03-08T13:28:17;14.60;;;8.13;;
77298;SDS011;66361;52.034;20.656;2024-03-08T13:32:08;17.88;;;8.10;;
77298;SDS011;66361;52.034;20.656;2024-03-08T13:36:01;11.48;;;7.15;;
77298;SDS011;66361;52.034;20.656;2024-03-08T13:39:51;15.10;;;7.57;;
77298;SDS011;66361;52.034;20.656;2024-03-08T13:43:35;11.85;;;7.50;;
77298;SDS011;66361;52.034;20.656;2024-03-08T13:47:19;14.88;;;8.32;;
77298;SDS011;66361;52.034;20.656;2024-03-08T13:51:03;11.82;;;7.72;;
77298;SDS011;66361;52.034;20.656;2024-03-08T13:58:33;12.48;;;7.72;;
77298;SDS011;66361;52.034;20.656;2024-03-08T14:02:18;10.88;;;5.53;;
77298;SDS011;66361;52.034;20.656;2024-03-08T14:06:04;14.65;;;7.82;;
77298;SDS011;66361;52.034;20.656;2024-03-08T14:09:49;15.98;;;7.95;;
77298;SDS011;66361;52.034;20.656;2024-03-08T14:13:36;14.90;;;8.60;;
77298;SDS011;66361;52.034;20.656;2024-03-08T14:17:24;15.60;;;8.25;;
77298;SDS011;66361;52.034;20.656;2024-03-08T14:24:53;14.57;;;7.60;;
77298;SDS011;66361;52.034;20.656;2024-03-08T14:28:39;34.30;;;11.77;;
77298;SDS011;66361;52.034;20.656;2024-03-08T14:32:23;16.30;;;9.55;;
77298;SDS011;66361;52.034;20.656;2024-03-08T14:36:07;13.68;;;7.97;;
77298;SDS011;66361;52.034;20.656;2024-03-08T14:39:55;14.20;;;8.18;;
77298;SDS011;66361;52.034;20.656;2024-03-08T14:43:43;13.80;;;8.68;;
77298;SDS011;66361;52.034;20.656;2024-03-08T14:47:28;14.57;;;8.70;;
77298;SDS011;66361;52.034;20.656;2024-03-08T14:51:13;14.50;;;8.50;;
77298;SDS011;66361;52.034;20.656;2024-03-08T14:54:57;15.05;;;7.35;;
77298;SDS011;66361;52.034;20.656;2024-03-08T14:58:42;12.70;;;8.40;;
77298;SDS011;66361;52.034;20.656;2024-03-08T15:02:27;15.13;;;8.80;;
77298;SDS011;66361;52.034;20.656;2024-03-08T15:06:11;13.90;;;7.78;;
77298;SDS011;66361;52.034;20.656;2024-03-08T15:09:57;16.05;;;9.73;;
77298;SDS011;66361;52.034;20.656;2024-03-08T15:13:43;11.50;;;6.85;;
77298;SDS011;66361;52.034;20.656;2024-03-08T15:17:28;14.45;;;7.53;;
77298;SDS011;66361;52.034;20.656;2024-03-08T15:21:12;13.95;;;8.07;;
77298;SDS011;66361;52.034;20.656;2024-03-08T15:24:59;15.35;;;8.50;;
77298;SDS011;66361;52.034;20.656;2024-03-08T15:28:44;12.23;;;7.07;;
77298;SDS011;66361;52.034;20.656;2024-03-08T15:32:30;21.42;;;9.82;;
77298;SDS011;66361;52.034;20.656;2024-03-08T15:36:14;391.02;;;58.28;;
77298;SDS011;66361;52.034;20.656;2024-03-08T15:39:59;104.55;;;22.77;;
77298;SDS011;66361;52.034;20.656;2024-03-08T15:43:49;20.98;;;10.32;;
77298;SDS011;66361;52.034;20.656;2024-03-08T15:47:34;30.77;;;13.93;;
77298;SDS011;66361;52.034;20.656;2024-03-08T15:51:19;26.73;;;13.10;;
77298;SDS011;66361;52.034;20.656;2024-03-08T15:55:03;20.50;;;10.55;;
77298;SDS011;66361;52.034;20.656;2024-03-08T15:58:47;19.17;;;10.55;;
77298;SDS011;66361;52.034;20.656;2024-03-08T16:02:33;21.40;;;9.52;;
77298;SDS011;66361;52.034;20.656;2024-03-08T16:06:17;272.77;;;37.83;;
77298;SDS011;66361;52.034;20.656;2024-03-08T16:10:04;140.27;;;23.58;;
77298;SDS011;66361;52.034;20.656;2024-03-08T16:13:50;17.65;;;7.90;;
77298;SDS011;66361;52.034;20.656;2024-03-08T16:17:36;22.67;;;8.23;;
77298;SDS011;66361;52.034;20.656;2024-03-08T16:21:22;15.57;;;7.13;;
77298;SDS011;66361;52.034;20.656;2024-03-08T16:25:06;13.23;;;6.43;;
77298;SDS011;66361;52.034;20.656;2024-03-08T16:28:54;18.05;;;6.80;;
77298;SDS011;66361;52.034;20.656;2024-03-08T16:32:42;18.10;;;7.50;;
77298;SDS011;66361;52.034;20.656;2024-03-08T16:36:27;12.38;;;6.75;;
77298;SDS011;66361;52.034;20.656;2024-03-08T16:40:11;8.65;;;6.05;;
77298;SDS011;66361;52.034;20.656;2024-03-08T16:43:57;12.98;;;7.53;;
77298;SDS011;66361;52.034;20.656;2024-03-08T16:47:46;12.70;;;7.00;;
77298;SDS011;66361;52.034;20.656;2024-03-08T16:51:31;13.15;;;7.68;;
77298;SDS011;66361;52.034;20.656;2024-03-08T16:55:15;11.60;;;7.55;;
77298;SDS011;66361;52.034;20.656;2024-03-08T16:58:59;19.17;;;10.80;;
77298;SDS011;66361;52.034;20.656;2024-03-08T17:02:47;20.40;;;10.32;;
77298;SDS011;66361;52.034;20.656;2024-03-08T17:06:32;16.60;;;9.82;;
77298;SDS011;66361;52.034;20.656;2024-03-08T17:10:16;16.88;;;10.10;;
77298;SDS011;66361;52.034;20.656;2024-03-08T17:14:01;19.48;;;12.10;;
77298;SDS011;66361;52.034;20.656;2024-03-08T17:21:32;18.45;;;9.52;;
77298;SDS011;66361;52.034;20.656;2024-03-08T17:25:16;21.27;;;10.13;;
77298;SDS011;66361;52.034;20.656;2024-03-08T17:29:03;21.85;;;12.50;;
77298;SDS011;66361;52.034;20.656;2024-03-08T17:32:49;21.50;;;10.27;;
77298;SDS011;66361;52.034;20.656;2024-03-08T17:36:38;19.85;;;11.65;;
77298;SDS011;66361;52.034;20.656;2024-03-08T17:40:23;27.70;;;14.10;;
77298;SDS011;66361;52.034;20.656;2024-03-08T17:44:09;28.63;;;15.05;;
77298;SDS011;66361;52.034;20.656;2024-03-08T17:47:54;41.85;;;20.60;;
77298;SDS011;66361;52.034;20.656;2024-03-08T17:51:38;31.25;;;17.45;;
77298;SDS011;66361;52.034;20.656;2024-03-08T17:55:22;20.73;;;12.50;;
77298;SDS011;66361;52.034;20.656;2024-03-08T17:59:07;21.70;;;12.20;;
77298;SDS011;66361;52.034;20.656;2024-03-08T18:02:51;18.70;;;10.90;;
77298;SDS011;66361;52.034;20.656;2024-03-08T18:06:37;18.20;;;10.60;;
77298;SDS011;66361;52.034;20.656;2024-03-08T18:10:23;20.50;;;12.00;;
77298;SDS011;66361;52.034;20.656;2024-03-08T18:14:09;20.33;;;11.57;;
77298;SDS011;66361;52.034;20.656;2024-03-08T18:17:56;21.23;;;12.02;;
77298;SDS011;66361;52.034;20.656;2024-03-08T18:21:42;32.40;;;17.33;;
77298;SDS011;66361;52.034;20.656;2024-03-08T18:25:26;35.95;;;17.92;;
77298;SDS011;66361;52.034;20.656;2024-03-08T18:29:11;36.28;;;18.35;;
77298;SDS011;66361;52.034;20.656;2024-03-08T18:32:58;31.08;;;17.95;;
77298;SDS011;66361;52.034;20.656;2024-03-08T18:36:44;40.20;;;21.73;;
77298;SDS011;66361;52.034;20.656;2024-03-08T18:40:28;41.33;;;22.65;;
77298;SDS011;66361;52.034;20.656;2024-03-08T18:44:12;45.40;;;20.35;;
77298;SDS011;66361;52.034;20.656;2024-03-08T18:47:57;42.70;;;21.92;;
77298;SDS011;66361;52.034;20.656;2024-03-08T18:51:44;40.60;;;22.48;;
77298;SDS011;66361;52.034;20.656;2024-03-08T18:55:33;48.45;;;23.25;;
77298;SDS011;66361;52.034;20.656;2024-03-08T18:59:18;41.55;;;21.17;;
77298;SDS011;66361;52.034;20.656;2024-03-08T19:03:02;47.03;;;23.38;;
77298;SDS011;66361;52.034;20.656;2024-03-08T19:06:52;38.40;;;23.13;;
77298;SDS011;66361;52.034;20.656;2024-03-08T19:14:21;48.67;;;26.55;;
77298;SDS011;66361;52.034;20.656;2024-03-08T19:18:05;47.85;;;23.85;;
77298;SDS011;66361;52.034;20.656;2024-03-08T19:21:53;34.05;;;20.92;;
77298;SDS011;66361;52.034;20.656;2024-03-08T19:25:38;33.92;;;18.25;;
77298;SDS011;66361;52.034;20.656;2024-03-08T19:29:25;31.98;;;16.35;;
77298;SDS011;66361;52.034;20.656;2024-03-08T19:33:11;39.20;;;19.58;;
77298;SDS011;66361;52.034;20.656;2024-03-08T19:36:58;42.33;;;22.02;;
77298;SDS011;66361;52.034;20.656;2024-03-08T19:44:28;26.77;;;13.70;;
77298;SDS011;66361;52.034;20.656;2024-03-08T19:48:12;31.65;;;13.50;;
77298;SDS011;66361;52.034;20.656;2024-03-08T19:52:02;27.73;;;14.32;;
77298;SDS011;66361;52.034;20.656;2024-03-08T19:55:49;31.00;;;15.43;;
77298;SDS011;66361;52.034;20.656;2024-03-08T19:59:37;58.70;;;29.98;;
77298;SDS011;66361;52.034;20.656;2024-03-08T20:03:27;58.97;;;24.80;;
77298;SDS011;66361;52.034;20.656;2024-03-08T20:07:14;38.17;;;17.90;;
77298;SDS011;66361;52.034;20.656;2024-03-08T20:10:58;35.47;;;16.77;;
77298;SDS011;66361;52.034;20.656;2024-03-08T20:14:46;33.17;;;14.30;;
77298;SDS011;66361;52.034;20.656;2024-03-08T20:18:30;39.40;;;18.27;;
77298;SDS011;66361;52.034;20.656;2024-03-08T20:22:19;35.67;;;15.98;;
77298;SDS011;66361;52.034;20.656;2024-03-08T20:26:04;39.72;;;18.98;;
77298;SDS011;66361;52.034;20.656;2024-03-08T20:29:53;51.85;;;25.45;;
77298;SDS011;66361;52.034;20.656;2024-03-08T20:33:38;54.55;;;25.70;;
77298;SDS011;66361;52.034;20.656;2024-03-08T20:37:25;48.00;;;19.70;;
77298;SDS011;66361;52.034;20.656;2024-03-08T20:41:09;48.78;;;24.05;;
77298;SDS011;66361;52.034;20.656;2024-03-08T20:44:54;54.83;;;24.83;;
77298;SDS011;66361;52.034;20.656;2024-03-08T20:48:41;55.17;;;23.95;;
77298;SDS011;66361;52.034;20.656;2024-03-08T20:52:29;49.55;;;25.45;;
77298;SDS011;66361;52.034;20.656;2024-03-08T20:56:13;53.95;;;25.63;;
77298;SDS011;66361;52.034;20.656;2024-03-08T21:00:00;60.72;;;27.70;;
77298;SDS011;66361;52.034;20.656;2024-03-08T21:03:48;65.38;;;26.33;;
77298;SDS011;66361;52.034;20.656;2024-03-08T21:07:34;60.40;;;27.65;;
77298;SDS011;66361;52.034;20.656;2024-03-08T21:11:19;71.65;;;31.88;;
77298;SDS011;66361;52.034;20.656;2024-03-08T21:15:03;58.80;;;28.02;;
77298;SDS011;66361;52.034;20.656;2024-03-08T21:18:50;65.75;;;27.63;;
77298;SDS011;66361;52.034;20.656;2024-03-08T21:22:38;56.50;;;25.77;;
77298;SDS011;66361;52.034;20.656;2024-03-08T21:26:22;62.80;;;29.15;;
77298;SDS011;66361;52.034;20.656;2024-03-08T21:30:06;62.05;;;31.20;;
77298;SDS011;66361;52.034;20.656;2024-03-08T21:33:51;70.45;;;33.83;;
77298;SDS011;66361;52.034;20.656;2024-03-08T21:37:35;66.30;;;30.73;;
77298;SDS011;66361;52.034;20.656;2024-03-08T21:45:05;52.55;;;27.80;;
77298;SDS011;66361;52.034;20.656;2024-03-08T21:48:50;57.25;;;30.35;;
77298;SDS011;66361;52.034;20.656;2024-03-08T21:52:34;65.60;;;28.05;;
77298;SDS011;66361;52.034;20.656;2024-03-08T21:56:20;64.30;;;30.20;;
77298;SDS011;66361;52.034;20.656;2024-03-08T22:00:04;62.15;;;31.50;;
77298;SDS011;66361;52.034;20.656;2024-03-08T22:03:53;67.43;;;29.45;;
77298;SDS011;66361;52.034;20.656;2024-03-08T22:07:38;59.55;;;26.80;;
77298;SDS011;66361;52.034;20.656;2024-03-08T22:11:25;58.90;;;29.50;;
77298;SDS011;66361;52.034;20.656;2024-03-08T22:15:09;64.28;;;29.75;;
77298;SDS011;66361;52.034;20.656;2024-03-08T22:18:53;64.68;;;29.40;;
77298;SDS011;66361;52.034;20.656;2024-03-08T22:22:37;67.90;;;28.70;;
77298;SDS011;66361;52.034;20.656;2024-03-08T22:26:22;65.13;;;28.25;;
77298;SDS011;66361;52.034;20.656;2024-03-08T22:30:08;69.03;;;28.55;;
77298;SDS011;66361;52.034;20.656;2024-03-08T22:33:53;53.55;;;27.92;;
77298;SDS011;66361;52.034;20.656;2024-03-08T22:37:37;62.58;;;28.63;;
77298;SDS011;66361;52.034;20.656;2024-03-08T22:41:21;54.45;;;27.23;;
77298;SDS011;66361;52.034;20.656;2024-03-08T22:45:10;66.00;;;29.48;;
77298;SDS011;66361;52.034;20.656;2024-03-08T22:48:55;60.90;;;27.58;;
77298;SDS011;66361;52.034;20.656;2024-03-08T22:52:39;64.05;;;28.75;;